地図

経路データ

SID SEASON NUMBER BASIN SUBBASIN NAME ISO_TIME NATURE LAT LON WMO_WIND WMO_PRES WMO_AGENCY TRACK_TYPE DIST2LAND LANDFALL IFLAG USA_AGENCY USA_ATCF_ID USA_LAT USA_LON USA_RECORD USA_STATUS USA_WIND USA_PRES USA_SSHS USA_R34_NE USA_R34_SE USA_R34_SW USA_R34_NW USA_R50_NE USA_R50_SE USA_R50_SW USA_R50_NW USA_R64_NE USA_R64_SE USA_R64_SW USA_R64_NW USA_POCI USA_ROCI USA_RMW USA_EYE TOKYO_LAT TOKYO_LON TOKYO_GRADE TOKYO_WIND TOKYO_PRES TOKYO_R50_DIR TOKYO_R50_LONG TOKYO_R50_SHORT TOKYO_R30_DIR TOKYO_R30_LONG TOKYO_R30_SHORT TOKYO_LAND CMA_LAT CMA_LON CMA_CAT CMA_WIND CMA_PRES HKO_LAT HKO_LON HKO_CAT HKO_WIND HKO_PRES NEWDELHI_LAT NEWDELHI_LON NEWDELHI_GRADE NEWDELHI_WIND NEWDELHI_PRES NEWDELHI_CI NEWDELHI_DP NEWDELHI_POCI REUNION_LAT REUNION_LON REUNION_TYPE REUNION_WIND REUNION_PRES REUNION_TNUM REUNION_CI REUNION_RMW REUNION_R34_NE REUNION_R34_SE REUNION_R34_SW REUNION_R34_NW REUNION_R50_NE REUNION_R50_SE REUNION_R50_SW REUNION_R50_NW REUNION_R64_NE REUNION_R64_SE REUNION_R64_SW REUNION_R64_NW BOM_LAT BOM_LON BOM_TYPE BOM_WIND BOM_PRES BOM_TNUM BOM_CI BOM_RMW BOM_R34_NE BOM_R34_SE BOM_R34_SW BOM_R34_NW BOM_R50_NE BOM_R50_SE BOM_R50_SW BOM_R50_NW BOM_R64_NE BOM_R64_SE BOM_R64_SW BOM_R64_NW BOM_ROCI BOM_POCI BOM_EYE BOM_POS_METHOD BOM_PRES_METHOD NADI_LAT NADI_LON NADI_CAT NADI_WIND NADI_PRES WELLINGTON_LAT WELLINGTON_LON WELLINGTON_WIND WELLINGTON_PRES DS824_LAT DS824_LON DS824_STAGE DS824_WIND DS824_PRES TD9636_LAT TD9636_LON TD9636_STAGE TD9636_WIND TD9636_PRES TD9635_LAT TD9635_LON TD9635_WIND TD9635_PRES TD9635_ROCI NEUMANN_LAT NEUMANN_LON NEUMANN_CLASS NEUMANN_WIND NEUMANN_PRES MLC_LAT MLC_LON MLC_CLASS MLC_WIND MLC_PRES USA_GUST BOM_GUST BOM_GUST_PER REUNION_GUST REUNION_GUST_PER USA_SEAHGT USA_SEARAD_NE USA_SEARAD_SE USA_SEARAD_SW USA_SEARAD_NW STORM_SPEED STORM_DIR
2001281N18071 2001 78 NI AS NOT_NAMED 2001-10-08 06:00:00 TS 17.7000 70.8000 main 229 229 O_____________ jtwc_io IO032001 17.7000 70.8000 TD 25 1002 -1 6 288
2001281N18071 2001 78 NI AS NOT_NAMED 2001-10-08 09:00:00 TS 17.8001 70.4826 main 257 257 P_____________ IO032001 17.8001 70.4826 TD 25 1002 -1 6 289
2001281N18071 2001 78 NI AS NOT_NAMED 2001-10-08 12:00:00 TS 17.9000 70.2000 main 287 287 O_____________ jtwc_io IO032001 17.9000 70.2000 TD 25 1002 -1 1008 120 20 5 293
2001281N18071 2001 78 NI AS NOT_NAMED 2001-10-08 15:00:00 TS 17.9999 69.9775 main 307 305 P_____________ IO032001 17.9999 69.9775 TD 25 1002 -1 1007 120 20 4 298
2001281N18071 2001 78 NI AS NOT_NAMED 2001-10-08 18:00:00 TS 18.1000 69.8000 main 309 295 O_____________ jtwc_io IO032001 18.1000 69.8000 TD 25 1002 -1 1006 120 20 2 343
2001281N18071 2001 78 NI AS NOT_NAMED 2001-10-08 21:00:00 TS 18.2140 69.9080 25 1004 newdelhi main 295 277 P___O_________ IO032001 18.1925 69.6350 TD 25 1002 -1 1005 120 40 18.3000 71.0000 D 25 1004 1.50000 4 3 6
2001281N18071 2001 78 NI AS NOT_NAMED 2001-10-09 00:00:00 TS 18.3667 69.8333 25 1004 newdelhi main 277 271 O___O_________ jtwc_io IO032001 18.3000 69.5000 TD 25 1002 -1 1005 120 60 18.5000 70.5000 D 25 1004 1.50000 4 4 319
2001281N18071 2001 78 NI AS NOT_NAMED 2001-10-09 03:00:00 TS 18.4800 69.6657 30 1002 newdelhi main 271 271 P___O_________ IO032001 18.4649 69.4150 TD 27 1001 -1 1005 120 60 18.5000 70.0000 DD 30 1002 2.00000 6 7 286
2001281N18071 2001 78 NI AS NOT_NAMED 2001-10-09 06:00:00 TS 18.5500 69.1500 30 1000 newdelhi main 288 288 O___O_________ jtwc_io IO032001 18.6000 69.3000 TD 30 1000 -1 1005 120 60 18.5000 69.0000 DD 30 1000 2.00000 6 9 292
2001281N18071 2001 78 NI AS NOT_NAMED 2001-10-09 09:00:00 TS 18.8225 68.7825 35 998 newdelhi main 294 294 P___O_________ IO032001 18.6451 69.0650 TD 32 998 -1 1004 120 52 19.0000 68.5000 CS 35 998 2.50000 6 8 289
2001281N18071 2001 78 NI AS NOT_NAMED 2001-10-09 12:00:00 TS 18.8000 68.4000 30 998 newdelhi main 318 318 O___O_________ jtwc_io IO032001 18.6000 68.8000 TS 35 997 0 1003 120 45 19.0000 68.0000 CS 30 998 2.50000 6 5 259
2001281N18071 2001 78 NI AS NOT_NAMED 2001-10-09 15:00:00 TS 18.7362 68.2925 35 998 newdelhi main 333 333 P___O_________ IO032001 18.4725 68.5849 TS 32 998 -1 1003 120 45 19.0000 68.0000 CS 35 998 2.50000 6 5 251
2001281N18071 2001 78 NI AS NOT_NAMED 2001-10-09 18:00:00 TS 18.6500 67.9500 35 998 newdelhi main 353 368 O___O_________ jtwc_io IO032001 18.3000 68.4000 TD 30 1000 -1 1003 120 45 19.0000 67.5000 CS 35 998 2.50000 6 4 248
2001281N18071 2001 78 NI AS NOT_NAMED 2001-10-09 21:00:00 TS 18.5712 67.8675 35 998 newdelhi main 368 368 P___O_________ IO032001 18.1425 68.2350 TD 30 1000 -1 1003 120 45 19.0000 67.5000 CS 35 998 2.50000 6 2 223
2001281N18071 2001 78 NI AS NOT_NAMED 2001-10-10 00:00:00 TS 18.5000 67.8000 35 998 newdelhi main 384 384 O___O_________ jtwc_io IO032001 18.0000 68.1000 TD 30 1000 -1 1003 120 45 19.0000 67.5000 CS 35 998 2.50000 6 2 198
2001281N18071 2001 78 NI AS NOT_NAMED 2001-10-10 03:00:00 TS 18.3457 67.7814 30 1000 newdelhi main 401 401 P___O_________ IO032001 17.8550 67.9925 TD 27 1001 -1 1004 120 42 19.0000 67.5000 DD 30 1000 2.00000 6 3 185
2001281N18071 2001 78 NI AS NOT_NAMED 2001-10-10 06:00:00 TS 18.2000 67.7667 30 1000 newdelhi main 410 410 O___O_________ jtwc_io IO032001 17.8000 67.9000 TD 25 1002 -1 1005 120 40 19.0000 67.5000 DD 30 1000 2.00000 6 2 189
2001281N18071 2001 78 NI AS NOT_NAMED 2001-10-10 09:00:00 TS 18.1180 67.7400 25 1002 newdelhi main 425 425 P___O_________ IO032001 17.8975 67.8000 TD 22 1003 -1 19.0000 67.5000 D 25 1002 2.00000 4 1 213
2001281N18071 2001 78 NI AS NOT_NAMED 2001-10-10 12:00:00 TS 18.1000 67.7000 main 425 406 O_____________ jtwc_io IO032001 18.1000 67.7000 TD 20 1004 -1 3 337
2001281N18071 2001 78 NI AS NOT_NAMED 2001-10-10 15:00:00 TS 18.3724 67.6225 main 406 397 P_____________ IO032001 18.3724 67.6225 TD 22 1003 -1 5 339
2001281N18071 2001 78 NI AS NOT_NAMED 2001-10-10 18:00:00 TS 18.6000 67.5000 main 397 397 O_____________ jtwc_io IO032001 18.6000 67.5000 TD 25 1002 -1 4 309
2001281N18071 2001 78 NI AS NOT_NAMED 2001-10-10 21:00:00 TS 18.6300 67.2799 main 412 412 P_____________ IO032001 18.6300 67.2799 TD 25 1002 -1 5 270
2001281N18071 2001 78 NI AS NOT_NAMED 2001-10-11 00:00:00 TS 18.6000 67.0000 main 435 435 O_____________ jtwc_io IO032001 18.6000 67.0000 TD 25 1002 -1 6 272
2001281N18071 2001 78 NI AS NOT_NAMED 2001-10-11 03:00:00 TS 18.6501 66.6851 main 450 450 P_____________ IO032001 18.6501 66.6851 TD 25 1002 -1 6 280
2001281N18071 2001 78 NI AS NOT_NAMED 2001-10-11 06:00:00 TS 18.7000 66.4000 main 473 473 O_____________ jtwc_io IO032001 18.7000 66.4000 TD 25 1002 -1 5 276
2001281N18071 2001 78 NI AS NOT_NAMED 2001-10-11 09:00:00 TS 18.6999 66.2050 main 488 488 P_____________ IO032001 18.6999 66.2050 TD 20 1004 -1 3 270
2001281N18071 2001 78 NI AS NOT_NAMED 2001-10-11 12:00:00 TS 18.7000 66.1000 main 495 495 O_____________ jtwc_io IO032001 18.7000 66.1000 TD 15 1006 -1 1 289
2001281N18071 2001 78 NI AS NOT_NAMED 2001-10-11 15:00:00 TS 18.7425 66.0700 main 495 488 P_____________ IO032001 18.7425 66.0700 TD 17 1005 -1 1 0
2001281N18071 2001 78 NI AS NOT_NAMED 2001-10-11 18:00:00 TS 18.8000 66.1000 main 488 488 O_____________ jtwc_io IO032001 18.8000 66.1000 TD 20 1004 -1 1 31
2001281N18071 2001 78 NI AS NOT_NAMED 2001-10-11 21:00:00 TS 18.8500 66.1425 main 479 472 P_____________ IO032001 18.8500 66.1425 TD 20 1004 -1 1 43
2001281N18071 2001 78 NI AS NOT_NAMED 2001-10-12 00:00:00 TS 18.9000 66.2000 main 472 465 O_____________ jtwc_io IO032001 18.9000 66.2000 TD 20 1004 -1 1 53
2001281N18071 2001 78 NI AS NOT_NAMED 2001-10-12 03:00:00 TS 18.9350 66.2575 main 465 457 P_____________ IO032001 18.9350 66.2575 TD 20 1004 -1 1 43
2001281N18071 2001 78 NI AS NOT_NAMED 2001-10-12 06:00:00 TS 19.0000 66.3000 main 457 448 O_____________ jtwc_io IO032001 19.0000 66.3000 TD 20 1004 -1 2 17
2001281N18071 2001 78 NI AS NOT_NAMED 2001-10-12 09:00:00 TS 19.1350 66.3150 main 448 430 P_____________ IO032001 19.1350 66.3150 TD 20 1004 -1 3 0
2001281N18071 2001 78 NI AS NOT_NAMED 2001-10-12 12:00:00 TS 19.3000 66.3000 main 430 422 O_____________ jtwc_io IO032001 19.3000 66.3000 TD 20 1004 -1 3 355
2001281N18071 2001 78 NI AS NOT_NAMED 2001-10-12 15:00:00 TS 19.4575 66.2800 main 413 411 P_____________ IO032001 19.4575 66.2800 TD 20 1004 -1 3 343
2001281N18071 2001 78 NI AS NOT_NAMED 2001-10-12 18:00:00 TS 19.6000 66.2000 main 411 411 O_____________ jtwc_io IO032001 19.6000 66.2000 TD 20 1004 -1 3 320
2001281N18071 2001 78 NI AS NOT_NAMED 2001-10-12 21:00:00 TS 19.7074 66.0524 main 411 411 P_____________ IO032001 19.7074 66.0524 TD 20 1004 -1 4 298
2001281N18071 2001 78 NI AS NOT_NAMED 2001-10-13 00:00:00 TS 19.8000 65.8000 main 426 426 O_____________ jtwc_io IO032001 19.8000 65.8000 TD 20 1004 -1 6 288
2001281N18071 2001 78 NI AS NOT_NAMED 2001-10-13 03:00:00 TS 19.8978 65.4326 main 451 451 P_____________ IO032001 19.8978 65.4326 TD 20 1004 -1 8 285
2001281N18071 2001 78 NI AS NOT_NAMED 2001-10-13 06:00:00 TS 20.0000 65.0000 main 479 O_____________ jtwc_io IO032001 20.0000 65.0000 TD 20 1004 -1 8 284

IBTrACS Databaseについて

本データベースは、米国NOAAが公開する1842年以降の世界の熱帯低気圧のベストトラックデータアーカイブInternational Best Track Archive for Climate Stewardship (IBTrACS)を、ウェブで閲覧しやすい形式に変換したものです。

最終更新日:2021-12-01